Time;durP1;ratioP1;P1;durP2;ratioP2;P2;SDS_P1;SDS_P2;PMS_P1;PMS_P2;Temp;Humidity;BMP_temperature;BMP_pressure;BME280_temperature;BME280_humidity;BME280_pressure;Samples;Min_cycle;Max_cycle;Signal;HPM_P1;HPM_P2
2021/03/24 00:01:41;;;;;;;13.60;9.13;;;1.60;99.90;;;;;;484332;245;27499;-75
2021/03/24 00:03:42;;;;;;;15.85;9.27;;;1.60;99.90;;;;;;484327;245;27402;-75
2021/03/24 00:05:43;;;;;;;11.32;9.10;;;1.60;99.90;;;;;;484320;245;27508;-75
2021/03/24 00:07:44;;;;;;;16.95;8.98;;;1.50;99.90;;;;;;483572;242;27550;-75
2021/03/24 00:09:46;;;;;;;14.35;8.45;;;1.50;99.90;;;;;;478116;244;27511;-75
2021/03/24 00:11:47;;;;;;;13.65;8.95;;;1.50;99.90;;;;;;477344;249;27539;-74
2021/03/24 00:13:49;;;;;;;13.57;9.35;;;1.40;99.90;;;;;;477367;249;27546;-74
2021/03/24 00:15:50;;;;;;;11.40;8.13;;;1.40;99.90;;;;;;477314;249;28125;-75
2021/03/24 00:17:51;;;;;;;13.45;8.73;;;1.40;99.90;;;;;;477307;249;28070;-76
2021/03/24 00:19:52;;;;;;;13.82;8.43;;;1.30;99.90;;;;;;477358;249;28100;-75
2021/03/24 00:21:53;;;;;;;15.23;9.52;;;1.30;99.90;;;;;;477345;249;27536;-75
2021/03/24 00:23:54;;;;;;;11.70;9.23;;;1.30;99.90;;;;;;477355;249;27542;-75
2021/03/24 00:25:56;;;;;;;16.02;9.10;;;1.30;99.90;;;;;;477163;249;27618;-75
2021/03/24 00:27:57;;;;;;;13.25;8.60;;;1.30;99.90;;;;;;475478;250;27445;-75
2021/03/24 00:29:58;;;;;;;16.20;9.07;;;1.20;99.90;;;;;;475473;250;27436;-75
2021/03/24 00:31:59;;;;;;;13.05;8.77;;;1.20;99.90;;;;;;475476;250;27444;-76
2021/03/24 00:34:01;;;;;;;12.90;8.65;;;1.20;99.90;;;;;;475480;250;27432;-75
2021/03/24 00:36:02;;;;;;;13.23;8.52;;;1.30;99.90;;;;;;475470;250;27901;-75
2021/03/24 00:38:03;;;;;;;15.10;9.30;;;1.40;99.90;;;;;;475478;250;27968;-75
2021/03/24 00:40:04;;;;;;;17.60;9.18;;;1.30;99.90;;;;;;475507;250;28019;-75
2021/03/24 00:42:06;;;;;;;14.05;9.25;;;1.40;99.90;;;;;;475502;250;27427;-76
2021/03/24 00:44:07;;;;;;;16.12;9.73;;;1.30;99.90;;;;;;475519;250;27452;-75
2021/03/24 00:46:08;;;;;;;15.35;9.60;;;1.40;99.90;;;;;;475511;250;27531;-75
2021/03/24 00:48:09;;;;;;;13.45;9.40;;;1.30;99.90;;;;;;475457;250;27857;-75
2021/03/24 00:50:11;;;;;;;15.85;8.88;;;1.30;99.90;;;;;;475466;250;27440;-75
2021/03/24 00:52:12;;;;;;;13.80;8.88;;;1.30;99.90;;;;;;475442;250;27500;-75
2021/03/24 00:54:13;;;;;;;14.25;9.18;;;1.20;99.90;;;;;;475465;250;27467;-75
2021/03/24 00:56:15;;;;;;;13.52;8.70;;;1.20;99.90;;;;;;475461;250;28002;-75
2021/03/24 00:58:16;;;;;;;12.40;8.65;;;1.20;99.90;;;;;;475445;250;27883;-76
2021/03/24 01:00:17;;;;;;;16.80;8.20;;;1.10;99.90;;;;;;475457;250;27922;-75
2021/03/24 01:02:18;;;;;;;12.63;8.43;;;1.20;99.90;;;;;;475466;250;27433;-75
2021/03/24 01:04:20;;;;;;;18.10;9.30;;;1.20;99.90;;;;;;475460;250;27424;-75
2021/03/24 01:06:21;;;;;;;15.65;8.70;;;1.20;99.90;;;;;;475468;250;27515;-75
2021/03/24 01:08:22;;;;;;;12.90;8.82;;;1.20;99.90;;;;;;475430;250;27444;-75
2021/03/24 01:10:23;;;;;;;12.05;8.35;;;1.20;99.90;;;;;;475467;250;27516;-74
2021/03/24 01:12:25;;;;;;;12.90;8.55;;;1.10;99.90;;;;;;475461;250;27439;-75
2021/03/24 01:14:26;;;;;;;12.70;8.20;;;1.10;99.90;;;;;;475455;250;27455;-75
2021/03/24 01:16:27;;;;;;;13.50;8.40;;;1.10;99.90;;;;;;475435;250;27879;-75
2021/03/24 01:18:28;;;;;;;12.88;8.07;;;1.10;99.90;;;;;;475468;250;27984;-78
2021/03/24 01:20:30;;;;;;;11.93;8.25;;;1.10;99.90;;;;;;475454;250;27982;-75
2021/03/24 01:22:31;;;;;;;16.60;9.80;;;1.10;99.90;;;;;;475453;250;27436;-75
2021/03/24 01:24:32;;;;;;;19.85;9.60;;;1.10;99.90;;;;;;475452;250;27539;-75
2021/03/24 01:26:33;;;;;;;11.50;8.52;;;1.10;99.90;;;;;;475473;250;27895;-75
2021/03/24 01:28:35;;;;;;;11.05;8.60;;;1.10;99.90;;;;;;475443;250;27448;-75
2021/03/24 01:30:36;;;;;;;14.20;9.50;;;1.00;99.90;;;;;;475474;250;27440;-75
2021/03/24 01:32:37;;;;;;;15.10;9.43;;;1.10;99.90;;;;;;475464;250;27477;-74
2021/03/24 01:34:38;;;;;;;14.15;8.77;;;1.00;99.90;;;;;;475468;250;27535;-76
2021/03/24 01:36:40;;;;;;;19.40;11.07;;;1.00;99.90;;;;;;475453;250;27960;-74
2021/03/24 01:38:41;;;;;;;15.43;10.63;;;1.00;99.90;;;;;;475446;250;28020;-74
2021/03/24 01:40:42;;;;;;;14.00;9.05;;;1.00;99.90;;;;;;475480;250;27562;-75
2021/03/24 01:42:43;;;;;;;13.93;9.02;;;1.00;99.90;;;;;;475476;250;27420;-75
2021/03/24 01:44:45;;;;;;;15.20;9.50;;;1.00;99.90;;;;;;475478;250;27552;-75
2021/03/24 01:46:46;;;;;;;14.98;8.60;;;1.00;99.90;;;;;;475483;250;27497;-75
2021/03/24 01:48:47;;;;;;;13.40;9.50;;;1.00;99.90;;;;;;475480;250;27504;-75
2021/03/24 01:50:48;;;;;;;15.88;9.70;;;0.90;99.90;;;;;;475511;250;27557;-76
2021/03/24 01:52:50;;;;;;;15.05;9.50;;;0.90;99.90;;;;;;475491;250;27520;-75
2021/03/24 01:54:51;;;;;;;15.07;9.55;;;0.90;99.90;;;;;;475495;250;27908;-75
2021/03/24 01:56:52;;;;;;;15.63;9.52;;;0.90;99.90;;;;;;475472;250;27888;-75
2021/03/24 01:58:53;;;;;;;17.73;9.35;;;0.90;99.90;;;;;;475488;250;27893;-75
2021/03/24 02:00:55;;;;;;;18.23;9.80;;;0.90;99.90;;;;;;475479;250;27437;-76
2021/03/24 02:02:56;;;;;;;14.77;9.75;;;0.90;99.90;;;;;;475470;250;27428;-75
2021/03/24 02:04:57;;;;;;;13.95;9.15;;;0.90;99.90;;;;;;475453;250;27524;-75
2021/03/24 02:06:58;;;;;;;16.95;9.68;;;0.90;99.90;;;;;;475452;250;27452;-75
2021/03/24 02:09:00;;;;;;;15.60;9.48;;;0.90;99.90;;;;;;475439;250;27496;-75
2021/03/24 02:11:01;;;;;;;14.27;9.55;;;0.90;99.90;;;;;;475471;250;27436;-76
2021/03/24 02:13:02;;;;;;;12.37;9.45;;;0.90;99.90;;;;;;475461;250;27500;-74
2021/03/24 02:15:03;;;;;;;14.18;9.80;;;0.90;99.90;;;;;;475464;250;27918;-75
2021/03/24 02:17:05;;;;;;;15.15;9.38;;;0.90;99.90;;;;;;475447;250;27868;-76
2021/03/24 02:19:06;;;;;;;14.50;9.77;;;1.00;99.90;;;;;;475420;250;27888;-75
2021/03/24 02:21:07;;;;;;;16.48;9.32;;;0.90;99.90;;;;;;475444;250;27408;-75
2021/03/24 02:23:08;;;;;;;15.68;9.93;;;0.90;99.90;;;;;;475459;250;27445;-75
2021/03/24 02:25:10;;;;;;;14.07;9.60;;;0.90;99.90;;;;;;475441;250;27509;-75
2021/03/24 02:27:11;;;;;;;15.27;9.57;;;0.90;99.90;;;;;;475454;250;27442;-75
2021/03/24 02:29:12;;;;;;;16.75;9.73;;;0.90;99.90;;;;;;475438;250;27521;-75
2021/03/24 02:31:13;;;;;;;14.18;9.00;;;1.00;99.90;;;;;;475460;250;27436;-74
2021/03/24 02:33:15;;;;;;;15.70;9.57;;;0.90;99.90;;;;;;475464;250;27424;-75
2021/03/24 02:35:16;;;;;;;13.93;9.65;;;1.00;99.90;;;;;;475441;250;27982;-75
2021/03/24 02:37:17;;;;;;;14.75;8.95;;;1.00;99.90;;;;;;475452;250;27878;-75
2021/03/24 02:39:18;;;;;;;12.75;8.70;;;1.00;99.90;;;;;;475444;250;27529;-75
2021/03/24 02:41:20;;;;;;;15.48;9.30;;;0.90;99.90;;;;;;475454;250;27428;-75
2021/03/24 02:43:21;;;;;;;15.00;10.10;;;1.00;99.90;;;;;;475459;248;27512;-75
2021/03/24 02:45:22;;;;;;;14.23;9.57;;;0.90;99.90;;;;;;475447;250;27431;-75
2021/03/24 02:47:23;;;;;;;16.60;9.55;;;0.90;99.90;;;;;;475470;250;27441;-74
2021/03/24 02:49:25;;;;;;;15.55;10.05;;;0.90;99.90;;;;;;475454;250;27484;-75
2021/03/24 02:51:26;;;;;;;20.40;9.85;;;0.90;99.90;;;;;;475459;250;27421;-75
2021/03/24 02:53:27;;;;;;;15.68;9.95;;;0.80;99.90;;;;;;475456;250;27895;-76
2021/03/24 02:55:28;;;;;;;13.65;9.07;;;0.70;99.90;;;;;;475467;250;27951;-75
2021/03/24 02:57:30;;;;;;;13.68;9.35;;;0.70;99.90;;;;;;475434;250;27955;-74
2021/03/24 02:59:31;;;;;;;16.58;9.73;;;0.70;99.90;;;;;;475461;250;27453;-76
2021/03/24 03:01:32;;;;;;;15.02;9.60;;;0.70;99.90;;;;;;475470;250;27523;-75
2021/03/24 03:03:33;;;;;;;16.95;9.30;;;0.70;99.90;;;;;;475487;250;27519;-75
2021/03/24 03:05:35;;;;;;;13.38;9.30;;;0.70;99.90;;;;;;475465;250;27503;-75
2021/03/24 03:07:36;;;;;;;15.82;9.63;;;0.70;99.90;;;;;;475450;250;27429;-75
2021/03/24 03:09:37;;;;;;;12.23;8.52;;;0.70;99.90;;;;;;475454;250;27446;-76
2021/03/24 03:11:39;;;;;;;11.45;9.10;;;0.70;99.90;;;;;;475468;250;27439;-75
2021/03/24 03:13:40;;;;;;;11.23;8.75;;;0.70;99.90;;;;;;475448;250;27876;-76
2021/03/24 03:15:41;;;;;;;15.70;9.60;;;0.80;99.90;;;;;;475453;250;27870;-72
2021/03/24 03:17:42;;;;;;;14.20;9.23;;;0.70;99.90;;;;;;475437;250;27515;-73
2021/03/24 03:19:44;;;;;;;12.50;8.98;;;0.70;99.90;;;;;;475441;250;27488;-73
2021/03/24 03:21:45;;;;;;;12.00;9.05;;;0.70;99.90;;;;;;475474;250;27512;-73
2021/03/24 03:23:46;;;;;;;14.55;9.30;;;0.60;99.90;;;;;;475452;250;27519;-73
2021/03/24 03:25:47;;;;;;;18.05;8.55;;;0.60;99.90;;;;;;475463;250;27516;-74
2021/03/24 03:27:49;;;;;;;14.32;9.15;;;0.60;99.90;;;;;;475456;250;27436;-72
2021/03/24 03:29:50;;;;;;;15.10;9.93;;;0.60;99.90;;;;;;475434;250;27520;-72
2021/03/24 03:31:51;;;;;;;12.95;7.82;;;0.50;99.90;;;;;;475462;246;27515;-75
2021/03/24 03:33:52;;;;;;;16.83;9.02;;;0.50;99.90;;;;;;475423;250;27936;-75
2021/03/24 03:35:54;;;;;;;14.48;9.23;;;0.60;99.90;;;;;;475455;250;27970;-75
2021/03/24 03:37:55;;;;;;;16.00;9.18;;;0.50;99.90;;;;;;475440;250;27425;-75
2021/03/24 03:39:56;;;;;;;13.30;8.43;;;0.50;99.90;;;;;;475422;250;27879;-74
2021/03/24 03:41:57;;;;;;;18.17;10.00;;;0.50;99.90;;;;;;475476;250;27860;-74
2021/03/24 03:43:59;;;;;;;14.70;9.88;;;0.50;99.90;;;;;;475441;250;27560;-75
2021/03/24 03:46:00;;;;;;;15.60;9.35;;;0.50;99.90;;;;;;475454;250;27495;-75
2021/03/24 03:48:01;;;;;;;14.63;9.43;;;0.50;99.90;;;;;;475464;250;27439;-75
2021/03/24 03:50:02;;;;;;;19.48;10.27;;;0.50;99.90;;;;;;475449;250;27424;-76
2021/03/24 03:52:04;;;;;;;14.10;9.70;;;0.50;99.90;;;;;;475470;250;27896;-75
2021/03/24 03:54:05;;;;;;;12.15;9.07;;;0.50;99.90;;;;;;475464;250;27888;-76
2021/03/24 03:56:06;;;;;;;12.90;9.30;;;0.50;99.90;;;;;;475451;250;27911;-75
2021/03/24 03:58:07;;;;;;;15.32;9.18;;;0.50;99.90;;;;;;475463;250;27417;-75
2021/03/24 04:00:09;;;;;;;14.23;9.70;;;0.50;99.90;;;;;;475450;250;27440;-75
2021/03/24 04:02:10;;;;;;;14.23;9.73;;;0.50;99.90;;;;;;475484;250;27440;-75
2021/03/24 04:04:11;;;;;;;15.25;9.80;;;0.40;99.90;;;;;;475471;250;27425;-75
2021/03/24 04:06:12;;;;;;;16.08;10.13;;;0.40;99.90;;;;;;475475;250;27432;-75
2021/03/24 04:08:14;;;;;;;14.05;9.63;;;0.40;99.90;;;;;;475511;250;27437;-75
2021/03/24 04:10:15;;;;;;;13.30;9.23;;;0.40;99.90;;;;;;475465;250;27893;-75
2021/03/24 04:12:17;;;;;;;13.98;9.50;;;0.40;99.90;;;;;;475462;250;27917;-75
2021/03/24 04:14:17;;;;;;;15.98;9.43;;;0.40;99.90;;;;;;475454;250;28034;-75
2021/03/24 04:16:19;;;;;;;16.05;8.80;;;0.40;99.90;;;;;;475449;250;27508;-75
2021/03/24 04:18:20;;;;;;;17.10;9.80;;;0.40;99.90;;;;;;475458;250;27844;-75
2021/03/24 04:20:21;;;;;;;15.82;9.80;;;0.40;99.90;;;;;;475465;250;27440;-74
2021/03/24 04:22:22;;;;;;;15.32;9.60;;;0.40;99.90;;;;;;475480;250;27499;-75
2021/03/24 04:24:24;;;;;;;12.35;9.35;;;0.40;99.90;;;;;;475475;250;27444;-75
2021/03/24 04:26:25;;;;;;;15.77;9.85;;;0.40;99.90;;;;;;475479;250;27519;-75
2021/03/24 04:28:26;;;;;;;18.75;9.10;;;0.40;99.90;;;;;;475499;250;27425;-75
2021/03/24 04:30:27;;;;;;;13.75;8.95;;;0.40;99.90;;;;;;475464;250;27981;-74
2021/03/24 04:32:29;;;;;;;13.95;9.23;;;0.30;99.90;;;;;;475507;250;28079;-75
2021/03/24 04:34:30;;;;;;;14.40;8.77;;;0.40;99.90;;;;;;475532;250;27959;-73
2021/03/24 04:36:31;;;;;;;14.48;9.25;;;0.40;99.90;;;;;;475517;250;27513;-75
2021/03/24 04:38:32;;;;;;;15.13;10.20;;;0.40;99.90;;;;;;475489;250;27513;-75
2021/03/24 04:40:34;;;;;;;14.45;8.35;;;0.40;99.90;;;;;;475470;250;27504;-75
2021/03/24 04:42:35;;;;;;;16.08;10.02;;;0.50;99.90;;;;;;475476;250;27515;-75
2021/03/24 04:44:36;;;;;;;16.80;9.55;;;0.40;99.90;;;;;;475457;250;27436;-75
2021/03/24 04:46:37;;;;;;;13.38;8.63;;;0.40;99.90;;;;;;475475;250;27519;-74
2021/03/24 04:48:39;;;;;;;11.80;8.52;;;0.40;99.90;;;;;;475455;250;27963;-75
2021/03/24 04:50:40;;;;;;;14.32;9.95;;;0.30;99.90;;;;;;475493;250;27856;-75
2021/03/24 04:52:41;;;;;;;13.35;9.23;;;0.30;99.90;;;;;;475468;250;27999;-75
2021/03/24 04:54:42;;;;;;;16.20;9.15;;;0.20;99.90;;;;;;475453;250;27428;-75
2021/03/24 04:56:44;;;;;;;13.60;9.13;;;0.20;99.90;;;;;;475469;250;27429;-75
2021/03/24 04:58:45;;;;;;;12.32;9.20;;;0.20;99.90;;;;;;475466;250;27496;-75
2021/03/24 05:00:46;;;;;;;13.40;10.00;;;0.20;99.90;;;;;;475451;250;27433;-74
2021/03/24 05:02:47;;;;;;;11.43;8.18;;;0.20;99.90;;;;;;475453;250;27491;-75
2021/03/24 05:04:49;;;;;;;14.82;9.00;;;0.20;99.90;;;;;;475480;250;27467;-75
2021/03/24 05:06:50;;;;;;;11.85;9.02;;;0.20;99.90;;;;;;475458;250;27497;-75
2021/03/24 05:08:51;;;;;;;14.02;9.05;;;0.20;99.90;;;;;;475466;250;27887;-75
2021/03/24 05:10:52;;;;;;;11.38;8.40;;;0.20;99.90;;;;;;475455;250;27867;-76
2021/03/24 05:12:54;;;;;;;13.60;9.50;;;0.20;99.90;;;;;;475474;250;27866;-75
2021/03/24 05:14:55;;;;;;;14.20;9.60;;;0.20;99.90;;;;;;475472;250;27500;-75
2021/03/24 05:16:56;;;;;;;11.27;8.70;;;0.20;99.90;;;;;;475446;250;27926;-75
2021/03/24 05:18:58;;;;;;;16.85;9.13;;;0.20;99.90;;;;;;475466;250;27416;-75
2021/03/24 05:20:59;;;;;;;14.82;9.63;;;0.20;99.90;;;;;;475438;250;27515;-75
2021/03/24 05:23:00;;;;;;;13.77;8.73;;;0.20;99.90;;;;;;475468;250;27425;-75
2021/03/24 05:25:01;;;;;;;10.48;8.48;;;0.30;99.90;;;;;;475459;250;27428;-75
2021/03/24 05:27:03;;;;;;;15.27;9.55;;;0.20;99.90;;;;;;475466;250;27428;-75
2021/03/24 05:29:04;;;;;;;15.65;10.02;;;0.20;99.90;;;;;;475463;248;27884;-74
2021/03/24 05:31:05;;;;;;;17.75;10.35;;;0.30;99.90;;;;;;475418;250;29087;-75
2021/03/24 05:33:06;;;;;;;15.15;10.15;;;0.30;99.90;;;;;;475462;250;27524;-76
2021/03/24 05:35:08;;;;;;;17.45;10.18;;;0.30;99.90;;;;;;475470;250;27500;-75
2021/03/24 05:37:09;;;;;;;15.98;10.40;;;0.30;99.90;;;;;;475469;250;27445;-75
2021/03/24 05:39:10;;;;;;;16.70;10.23;;;0.30;99.90;;;;;;475461;250;27412;-75
2021/03/24 05:41:11;;;;;;;15.55;10.40;;;0.30;99.90;;;;;;475473;250;27511;-75
2021/03/24 05:43:13;;;;;;;21.98;11.77;;;0.40;99.90;;;;;;475439;250;27943;-75
2021/03/24 05:45:14;;;;;;;16.52;10.30;;;0.40;99.90;;;;;;475475;250;27892;-75
2021/03/24 05:47:15;;;;;;;14.98;10.68;;;0.40;99.90;;;;;;475457;250;27893;-75
2021/03/24 05:49:18;;;;;;;16.92;10.60;;;0.40;99.90;;;;;;475472;250;27587;-75
2021/03/24 05:51:18;;;;;;;15.57;11.02;;;0.40;99.90;;;;;;475431;250;27431;-75
2021/03/24 05:53:19;;;;;;;16.02;9.30;;;0.40;99.90;;;;;;475449;250;27528;-76
2021/03/24 05:55:20;;;;;;;17.30;11.23;;;0.40;99.90;;;;;;475511;250;27421;-75
2021/03/24 05:57:21;;;;;;;16.45;10.15;;;0.40;99.90;;;;;;475518;250;27440;-75
2021/03/24 05:59:23;;;;;;;18.30;10.95;;;0.40;99.90;;;;;;475451;250;27984;-75
2021/03/24 06:01:24;;;;;;;12.18;9.55;;;0.40;99.90;;;;;;475466;250;27849;-75
2021/03/24 06:03:25;;;;;;;15.05;9.70;;;0.40;99.90;;;;;;475428;250;27993;-75
2021/03/24 06:05:26;;;;;;;13.82;8.25;;;0.40;99.90;;;;;;475449;250;27408;-74
2021/03/24 06:07:28;;;;;;;16.92;10.73;;;0.40;99.90;;;;;;475469;250;27420;-76
2021/03/24 06:09:29;;;;;;;15.98;9.80;;;0.50;99.90;;;;;;475448;250;27444;-75
2021/03/24 06:11:30;;;;;;;14.50;9.60;;;0.50;99.90;;;;;;475443;250;27503;-75
2021/03/24 06:13:31;;;;;;;18.75;9.20;;;0.50;99.90;;;;;;475435;250;27420;-75
2021/03/24 06:15:33;;;;;;;12.23;8.82;;;0.40;99.90;;;;;;475449;250;27496;-75
2021/03/24 06:17:34;;;;;;;14.10;9.25;;;0.40;99.90;;;;;;475449;250;27493;-75
2021/03/24 06:19:35;;;;;;;14.05;9.65;;;0.50;99.90;;;;;;475443;250;27879;-75
2021/03/24 06:21:36;;;;;;;12.93;9.10;;;0.50;99.90;;;;;;475469;250;27894;-75
2021/03/24 06:23:38;;;;;;;14.77;9.85;;;0.60;99.90;;;;;;475443;250;27428;-75
2021/03/24 06:25:39;;;;;;;14.27;9.50;;;0.70;99.90;;;;;;475461;250;27439;-75
2021/03/24 06:27:40;;;;;;;14.70;10.68;;;0.70;99.90;;;;;;475463;250;27508;-75
2021/03/24 06:29:41;;;;;;;16.25;11.18;;;0.80;99.90;;;;;;475456;250;27432;-75
2021/03/24 06:31:43;;;;;;;15.00;10.85;;;0.80;99.90;;;;;;475443;250;27520;-76
2021/03/24 06:33:44;;;;;;;17.90;11.23;;;0.80;99.90;;;;;;475115;240;27492;-75
2021/03/24 06:35:45;;;;;;;16.70;10.85;;;0.80;99.90;;;;;;468444;254;27974;-75
2021/03/24 06:37:46;;;;;;;20.58;10.25;;;0.90;99.90;;;;;;468454;254;29221;-76
2021/03/24 06:39:48;;;;;;;19.73;10.55;;;1.00;99.90;;;;;;468473;254;27566;-75
2021/03/24 06:41:49;;;;;;;14.30;9.93;;;1.00;99.90;;;;;;468448;254;27557;-75
2021/03/24 06:43:50;;;;;;;19.30;10.65;;;1.00;99.90;;;;;;468460;254;27558;-75
2021/03/24 06:45:51;;;;;;;15.88;9.95;;;1.10;99.90;;;;;;464523;254;27519;-76
2021/03/24 06:47:53;;;;;;;14.63;10.45;;;1.20;99.90;;;;;;463951;254;27538;-75
2021/03/24 06:49:54;;;;;;;17.40;10.25;;;1.20;99.90;;;;;;463942;256;27546;-75
2021/03/24 06:51:55;;;;;;;14.95;9.45;;;1.30;99.90;;;;;;463929;254;28009;-75
2021/03/24 06:53:57;;;;;;;13.45;9.45;;;1.30;99.90;;;;;;463954;254;28030;-75
2021/03/24 06:55:58;;;;;;;12.82;9.00;;;1.40;99.90;;;;;;463971;254;28040;-75
2021/03/24 06:57:59;;;;;;;15.07;9.57;;;1.50;99.90;;;;;;463945;254;27558;-75
2021/03/24 07:00:00;;;;;;;12.75;9.00;;;1.50;99.90;;;;;;463966;254;27630;-75
2021/03/24 07:02:02;;;;;;;23.05;10.13;;;1.60;99.90;;;;;;463997;254;27462;-76
2021/03/24 07:04:03;;;;;;;14.70;9.10;;;1.70;99.90;;;;;;463960;254;27458;-74
2021/03/24 07:06:04;;;;;;;13.57;9.63;;;1.80;99.90;;;;;;464000;254;27461;-75
2021/03/24 07:08:05;;;;;;;14.98;8.85;;;1.80;99.90;;;;;;463971;254;27454;-75
2021/03/24 07:10:07;;;;;;;20.20;9.13;;;2.00;99.90;;;;;;463980;254;27469;-76
2021/03/24 07:12:08;;;;;;;14.38;9.02;;;2.00;99.90;;;;;;463964;254;27933;-76
2021/03/24 07:14:09;;;;;;;13.88;9.75;;;2.10;99.90;;;;;;463932;254;28077;-75
2021/03/24 07:16:10;;;;;;;15.75;8.35;;;2.20;99.90;;;;;;463973;254;28021;-75
2021/03/24 07:18:12;;;;;;;17.27;10.60;;;2.30;99.90;;;;;;463940;254;27711;-75
2021/03/24 07:20:13;;;;;;;15.18;9.52;;;2.40;99.90;;;;;;463937;254;27569;-75
2021/03/24 07:22:14;;;;;;;13.98;10.23;;;2.50;99.90;;;;;;463961;254;27521;-77
2021/03/24 07:24:15;;;;;;;14.32;9.45;;;2.50;99.90;;;;;;463959;254;27515;-75
2021/03/24 07:26:17;;;;;;;15.23;9.23;;;2.60;99.90;;;;;;464004;254;27576;-76
2021/03/24 07:28:20;;;;;;;12.20;9.00;;;2.80;99.90;;;;;;464008;254;27466;-76
2021/03/24 07:30:19;;;;;;;14.65;10.25;;;2.90;99.90;;;;;;463844;256;28021;-75
2021/03/24 07:32:20;;;;;;;17.87;10.88;;;2.90;99.90;;;;;;463987;254;27992;-76
2021/03/24 07:34:22;;;;;;;12.93;10.18;;;3.00;99.90;;;;;;467710;253;27475;-75
2021/03/24 07:36:23;;;;;;;12.85;9.40;;;3.10;99.90;;;;;;469892;253;27566;-75
2021/03/24 07:38:24;;;;;;;16.15;10.77;;;3.40;99.90;;;;;;469921;253;27443;-76
2021/03/24 07:40:25;;;;;;;12.73;9.25;;;3.70;99.90;;;;;;469901;253;27555;-75
2021/03/24 07:42:27;;;;;;;11.82;8.45;;;3.80;99.90;;;;;;469914;253;27718;-75
2021/03/24 07:44:28;;;;;;;15.20;9.90;;;3.90;99.90;;;;;;469904;253;27455;-75
2021/03/24 07:46:29;;;;;;;18.45;11.93;;;4.10;99.90;;;;;;469887;253;27683;-75
2021/03/24 07:48:30;;;;;;;19.50;12.93;;;4.20;99.90;;;;;;469919;253;28035;-76
2021/03/24 07:50:32;;;;;;;17.05;12.65;;;4.20;99.90;;;;;;469913;253;27459;-75
2021/03/24 07:52:33;;;;;;;22.83;15.07;;;4.20;99.90;;;;;;469922;253;27564;-75
2021/03/24 07:54:34;;;;;;;20.27;13.13;;;4.30;99.90;;;;;;469918;253;27574;-75
2021/03/24 07:56:35;;;;;;;21.25;15.13;;;4.30;99.90;;;;;;469921;253;27650;-75
2021/03/24 07:58:37;;;;;;;25.00;12.63;;;4.30;99.90;;;;;;469910;253;27478;-75
2021/03/24 08:00:38;;;;;;;19.45;13.13;;;4.40;99.90;;;;;;469891;253;28054;-75
2021/03/24 08:02:39;;;;;;;15.68;10.68;;;4.40;99.90;;;;;;469932;253;28027;-75
2021/03/24 08:04:40;;;;;;;13.88;10.20;;;4.40;99.90;;;;;;469914;253;27565;-75
2021/03/24 08:06:42;;;;;;;13.95;10.23;;;4.50;99.90;;;;;;469915;253;27646;-75
2021/03/24 08:08:43;;;;;;;15.52;9.85;;;4.60;99.90;;;;;;469927;253;27566;-75
2021/03/24 08:10:44;;;;;;;15.82;10.35;;;4.70;99.90;;;;;;469956;253;27462;-76
2021/03/24 08:12:52;;;;;;;18.20;11.07;;;4.80;99.90;;;;;;469930;253;27499;-72
2021/03/24 08:14:50;;;;;;;16.70;10.75;;;5.10;99.90;;;;;;469474;253;28158;-73
2021/03/24 08:16:48;;;;;;;18.58;11.70;;;5.20;99.90;;;;;;469727;253;28051;-73
2021/03/24 08:18:49;;;;;;;16.35;11.23;;;5.40;99.90;;;;;;469992;251;27532;-74
2021/03/24 08:20:51;;;;;;;15.63;9.82;;;5.40;99.90;;;;;;469998;253;27463;-78
2021/03/24 08:22:52;;;;;;;17.05;10.50;;;5.40;99.90;;;;;;470007;253;27539;-74
2021/03/24 08:24:53;;;;;;;18.45;11.05;;;5.50;99.90;;;;;;470000;253;27546;-74
2021/03/24 08:26:54;;;;;;;17.02;9.35;;;5.80;99.90;;;;;;470016;253;28606;-77
2021/03/24 08:28:56;;;;;;;14.80;9.40;;;5.80;99.90;;;;;;469966;253;28005;-74
2021/03/24 08:30:57;;;;;;;17.40;9.00;;;5.80;99.90;;;;;;469990;253;27469;-76
2021/03/24 08:32:58;;;;;;;12.60;8.25;;;5.80;99.90;;;;;;469937;253;27454;-74
2021/03/24 08:34:59;;;;;;;15.15;8.80;;;5.80;99.90;;;;;;469916;253;27572;-74
2021/03/24 08:37:01;;;;;;;15.65;8.07;;;5.80;99.90;;;;;;469979;253;27447;-75
2021/03/24 08:39:02;;;;;;;11.32;7.82;;;5.80;99.90;;;;;;469947;249;27458;-74
2021/03/24 08:41:03;;;;;;;12.60;7.70;;;5.80;99.90;;;;;;469980;253;27990;-74
2021/03/24 08:43:04;;;;;;;11.05;7.57;;;5.90;99.90;;;;;;469971;253;28093;-74
2021/03/24 08:45:06;;;;;;;16.40;8.73;;;6.00;99.90;;;;;;469979;250;27458;-74
2021/03/24 08:47:07;;;;;;;13.43;7.97;;;6.10;99.90;;;;;;469957;249;27530;-74
2021/03/24 08:49:08;;;;;;;12.52;7.90;;;6.20;99.90;;;;;;469968;253;27463;-73
2021/03/24 08:51:09;;;;;;;11.60;7.72;;;6.30;99.90;;;;;;469980;253;27463;-75
2021/03/24 08:53:11;;;;;;;14.55;7.78;;;6.30;99.90;;;;;;469964;253;27993;-76
2021/03/24 08:55:12;;;;;;;15.02;9.07;;;6.40;99.90;;;;;;469938;253;27906;-73
2021/03/24 08:57:13;;;;;;;16.27;8.52;;;6.50;99.90;;;;;;469945;253;27451;-73
2021/03/24 08:59:14;;;;;;;14.63;7.95;;;6.60;99.90;;;;;;469919;253;27549;-74
2021/03/24 09:01:16;;;;;;;14.30;9.32;;;6.70;99.90;;;;;;469949;253;27534;-73
2021/03/24 09:03:17;;;;;;;16.52;9.25;;;6.80;99.90;;;;;;469942;253;27478;-75
2021/03/24 09:05:18;;;;;;;18.17;8.90;;;6.80;99.90;;;;;;469899;253;28056;-73
2021/03/24 09:07:19;;;;;;;24.75;8.75;;;6.90;99.90;;;;;;469931;249;27952;-74
2021/03/24 09:09:21;;;;;;;18.70;9.18;;;6.90;99.90;;;;;;469933;253;27462;-73
2021/03/24 09:11:22;;;;;;;17.40;9.50;;;7.00;99.90;;;;;;469910;253;27447;-74
2021/03/24 09:13:23;;;;;;;16.80;9.18;;;7.00;99.90;;;;;;469942;253;27526;-74
2021/03/24 09:15:25;;;;;;;15.77;8.80;;;7.00;99.90;;;;;;469912;253;27555;-74
2021/03/24 09:17:26;;;;;;;15.87;9.83;;;7.20;99.90;;;;;;469952;253;27910;-74
2021/03/24 09:19:27;;;;;;;14.50;9.18;;;7.30;99.90;;;;;;469939;253;29387;-76
2021/03/24 09:21:28;;;;;;;17.97;10.00;;;7.40;99.90;;;;;;469936;253;27586;-75
2021/03/24 09:23:30;;;;;;;14.33;9.20;;;7.50;99.90;;;;;;469941;253;28005;-74
2021/03/24 09:25:31;;;;;;;20.10;9.70;;;7.40;99.90;;;;;;469937;253;28841;-73
2021/03/24 09:27:32;;;;;;;15.35;8.95;;;7.50;99.90;;;;;;469930;253;28825;-73
2021/03/24 09:29:33;;;;;;;15.70;8.80;;;7.60;99.90;;;;;;469956;253;27549;-75
2021/03/24 09:31:35;;;;;;;13.10;9.10;;;7.60;99.90;;;;;;469936;253;29211;-73
2021/03/24 09:33:36;;;;;;;20.48;10.15;;;7.70;99.90;;;;;;469940;253;27937;-73
2021/03/24 09:35:37;;;;;;;16.20;9.60;;;7.80;99.90;;;;;;469366;253;27547;-76
2021/03/24 09:37:38;;;;;;;18.70;9.60;;;7.80;99.90;;;;;;468503;253;28166;-75
2021/03/24 09:39:40;;;;;;;23.33;10.87;;;7.90;99.90;;;;;;468558;254;28051;-74
2021/03/24 09:41:41;;;;;;;17.53;9.33;;;7.90;99.90;;;;;;468549;254;28181;-73
2021/03/24 09:43:42;;;;;;;16.50;10.40;;;8.10;99.90;;;;;;468567;251;28058;-74
2021/03/24 09:45:43;;;;;;;17.00;9.17;;;8.00;99.90;;;;;;468538;254;27926;-79
2021/03/24 09:47:45;;;;;;;16.40;10.63;;;8.20;99.90;;;;;;468540;254;27568;-74
2021/03/24 09:49:46;;;;;;;15.43;9.70;;;8.30;99.90;;;;;;468533;254;28554;-73
2021/03/24 09:51:47;;;;;;;16.07;10.03;;;8.30;99.90;;;;;;468547;254;28729;-73
2021/03/24 09:53:48;;;;;;;20.87;11.30;;;8.30;99.90;;;;;;468525;254;28162;-73
2021/03/24 09:55:50;;;;;;;19.77;10.97;;;8.60;99.90;;;;;;468527;254;27801;-75
2021/03/24 09:57:51;;;;;;;17.83;10.70;;;8.60;99.90;;;;;;468524;254;28149;-73
2021/03/24 09:59:52;;;;;;;15.07;10.10;;;8.50;99.90;;;;;;468524;254;28033;-74
2021/03/24 10:01:53;;;;;;;21.80;11.20;;;8.50;99.90;;;;;;468513;253;28191;-75
2021/03/24 10:03:55;;;;;;;20.17;10.90;;;8.60;99.90;;;;;;468534;254;28055;-74
2021/03/24 10:05:56;;;;;;;21.70;10.40;;;8.50;99.90;;;;;;468529;254;28057;-75
2021/03/24 10:07:57;;;;;;;19.17;10.70;;;8.60;99.90;;;;;;468544;254;28580;-76
2021/03/24 10:09:58;;;;;;;15.37;10.03;;;8.70;99.90;;;;;;468515;254;28348;-75
2021/03/24 10:12:00;;;;;;;20.60;12.03;;;8.70;99.90;;;;;;468536;254;27680;-75
2021/03/24 10:14:01;;;;;;;18.30;10.70;;;8.70;99.90;;;;;;468510;254;28138;-75
2021/03/24 10:16:04;;;;;;;17.00;10.97;;;8.70;99.90;;;;;;468538;254;28059;-78
2021/03/24 10:18:03;;;;;;;21.73;10.93;;;8.70;99.90;;;;;;468453;254;28154;-76
2021/03/24 10:20:05;;;;;;;16.70;9.63;;;8.80;99.90;;;;;;468502;254;28043;-76
2021/03/24 10:22:06;;;;;;;22.47;11.30;;;8.90;99.90;;;;;;468543;254;28127;-75
2021/03/24 10:24:07;;;;;;;19.77;10.83;;;9.00;99.90;;;;;;468533;254;27785;-76
2021/03/24 10:26:08;;;;;;;16.57;10.70;;;8.90;99.90;;;;;;468520;254;28748;-76
2021/03/24 10:28:10;;;;;;;20.87;10.87;;;9.10;99.90;;;;;;468528;254;28621;-76